createdAt,value
2018-11-13T00:00:31.922Z,8.40
2018-11-13T00:03:01.391Z,8.40
2018-11-13T00:05:30.202Z,8.40
2018-11-13T00:07:58.741Z,8.40
2018-11-13T00:10:27.332Z,8.40
2018-11-13T00:12:55.901Z,8.40
2018-11-13T00:15:24.510Z,8.30
2018-11-13T00:17:53.081Z,8.30
2018-11-13T00:20:21.622Z,8.30
2018-11-13T00:22:50.186Z,8.30
2018-11-13T00:25:19.899Z,8.30
2018-11-13T00:27:48.584Z,8.30
2018-11-13T00:30:23.649Z,8.30
2018-11-13T00:32:52.346Z,8.30
2018-11-13T00:35:21.497Z,8.20
2018-11-13T00:37:50.604Z,8.20
2018-11-13T00:40:19.475Z,8.20
2018-11-13T00:42:48.621Z,8.20
2018-11-13T00:45:17.240Z,8.20
2018-11-13T00:47:45.762Z,8.20
2018-11-13T00:50:16.081Z,8.20
2018-11-13T00:52:46.303Z,8.10
2018-11-13T00:55:15.270Z,8.10
2018-11-13T00:57:44.086Z,8.10
2018-11-13T01:00:15.591Z,8.10
2018-11-13T01:02:44.535Z,8.10
2018-11-13T01:05:14.833Z,8.10
2018-11-13T01:07:44.507Z,8.10
2018-11-13T01:10:14.162Z,8.10
2018-11-13T01:12:43.884Z,8.10
2018-11-13T01:15:14.105Z,8.00
2018-11-13T01:17:44.316Z,8.00
2018-11-13T01:20:13.398Z,8.00
2018-11-13T01:22:41.995Z,8.00
2018-11-13T01:25:11.902Z,8.00
2018-11-13T01:27:41.042Z,8.00
2018-11-13T01:30:11.033Z,8.00
2018-11-13T01:32:40.757Z,8.00
2018-11-13T01:35:10.862Z,7.90
2018-11-13T01:37:39.455Z,7.90
2018-11-13T01:40:12.712Z,7.90
2018-11-13T01:42:41.744Z,7.90
2018-11-13T01:45:12.662Z,7.90
2018-11-13T01:47:41.404Z,7.80
2018-11-13T01:50:10.768Z,7.90
2018-11-13T01:52:39.351Z,7.90
2018-11-13T01:55:10.310Z,7.90
2018-11-13T01:57:39.078Z,7.80
2018-11-13T02:00:16.521Z,7.80
2018-11-13T02:02:47.118Z,7.80
2018-11-13T02:05:16.167Z,7.80
2018-11-13T02:07:44.749Z,7.80
2018-11-13T02:10:13.359Z,7.70
2018-11-13T02:12:41.915Z,7.80
2018-11-13T02:15:10.844Z,7.70
2018-11-13T02:17:39.512Z,7.70
2018-11-13T02:20:10.458Z,7.80
2018-11-13T02:22:39.442Z,7.70
2018-11-13T02:25:10.330Z,7.70
2018-11-13T02:27:38.950Z,7.70
2018-11-13T02:30:09.171Z,7.70
2018-11-13T02:32:37.710Z,7.70
2018-11-13T02:35:07.532Z,7.60
2018-11-13T02:37:36.125Z,7.60
2018-11-13T02:40:05.505Z,7.60
2018-11-13T02:42:34.893Z,7.60
2018-11-13T02:45:03.691Z,7.60
2018-11-13T02:47:32.963Z,7.60
2018-11-13T02:50:01.509Z,7.60
2018-11-13T02:52:30.053Z,7.60
2018-11-13T02:54:58.619Z,7.60
2018-11-13T02:57:27.171Z,7.50
2018-11-13T02:59:55.752Z,7.50
2018-11-13T03:02:24.294Z,7.50
2018-11-13T03:04:52.924Z,7.50
2018-11-13T03:07:21.620Z,7.50
2018-11-13T03:09:50.238Z,7.50
2018-11-13T03:12:18.820Z,7.50
2018-11-13T03:14:47.379Z,7.50
2018-11-13T03:17:16.014Z,7.50
2018-11-13T03:19:44.568Z,7.50
2018-11-13T03:22:13.127Z,7.40
2018-11-13T03:24:41.695Z,7.40
2018-11-13T03:27:10.247Z,7.40
2018-11-13T03:29:38.837Z,7.40
2018-11-13T03:32:07.416Z,7.40
2018-11-13T03:34:35.966Z,7.40
2018-11-13T03:37:04.844Z,7.40
2018-11-13T03:39:33.441Z,7.40
2018-11-13T03:42:02.114Z,7.40
2018-11-13T03:44:30.674Z,7.40
2018-11-13T03:46:59.215Z,7.40
2018-11-13T03:49:27.779Z,7.30
2018-11-13T03:51:56.310Z,7.30
2018-11-13T03:54:24.883Z,7.30
2018-11-13T03:56:53.428Z,7.30
2018-11-13T03:59:22.107Z,7.30
2018-11-13T04:01:50.697Z,7.30
2018-11-13T04:04:19.230Z,7.30
2018-11-13T04:06:47.785Z,7.30
2018-11-13T04:09:16.323Z,7.30
2018-11-13T04:11:44.882Z,7.30
2018-11-13T04:14:13.390Z,7.20
2018-11-13T04:16:41.933Z,7.20
2018-11-13T04:19:10.455Z,7.20
2018-11-13T04:21:39.011Z,7.20
2018-11-13T04:24:07.579Z,7.20
2018-11-13T04:26:36.134Z,7.20
2018-11-13T04:29:04.695Z,7.20
2018-11-13T04:31:33.234Z,7.20
2018-11-13T04:34:01.761Z,7.10
2018-11-13T04:36:30.392Z,7.10
2018-11-13T04:38:58.905Z,7.20
2018-11-13T04:41:27.446Z,7.10
2018-11-13T04:43:55.943Z,7.10
2018-11-13T04:46:24.471Z,7.10
2018-11-13T04:48:52.987Z,7.10
2018-11-13T04:51:21.550Z,7.10
2018-11-13T04:53:50.072Z,7.00
2018-11-13T04:56:18.622Z,7.00
2018-11-13T04:58:47.225Z,7.00
2018-11-13T05:01:15.793Z,7.00
2018-11-13T05:03:44.306Z,7.00
2018-11-13T05:06:12.943Z,7.00
2018-11-13T05:08:41.449Z,7.00
2018-11-13T05:13:49.234Z,7.00
2018-11-13T05:16:17.774Z,6.90
2018-11-13T05:18:46.291Z,6.90
2018-11-13T05:21:14.843Z,6.90
2018-11-13T05:23:43.365Z,6.90
2018-11-13T05:26:11.930Z,6.90
2018-11-13T05:28:40.600Z,6.90
2018-11-13T05:31:09.126Z,6.90
2018-11-13T05:33:37.730Z,6.90
2018-11-13T05:36:06.713Z,6.90
2018-11-13T05:38:35.230Z,6.80
2018-11-13T05:41:03.783Z,6.80
2018-11-13T05:43:32.314Z,6.80
2018-11-13T05:46:00.861Z,6.80
2018-11-13T05:48:29.660Z,6.80
2018-11-13T05:50:58.185Z,6.80
2018-11-13T05:53:26.730Z,6.80
2018-11-13T05:55:55.273Z,6.80
2018-11-13T05:58:24.549Z,6.80
2018-11-13T06:00:53.075Z,6.80
2018-11-13T06:03:21.618Z,6.80
2018-11-13T06:05:50.164Z,6.70
2018-11-13T06:08:19.459Z,6.80
2018-11-13T06:10:48.107Z,6.80
2018-11-13T06:13:16.846Z,6.70
2018-11-13T06:15:45.414Z,6.70
2018-11-13T06:18:14.033Z,6.70
2018-11-13T06:20:42.535Z,6.70
2018-11-13T06:23:11.175Z,6.70
2018-11-13T06:25:40.225Z,6.70
2018-11-13T06:28:08.888Z,6.70
2018-11-13T06:30:37.441Z,6.70
2018-11-13T06:33:06.540Z,6.60
2018-11-13T06:35:35.096Z,6.60
2018-11-13T06:38:03.668Z,6.60
2018-11-13T06:40:32.238Z,6.60
2018-11-13T06:43:00.890Z,6.60
2018-11-13T06:45:29.504Z,6.60
2018-11-13T06:47:58.078Z,6.60
2018-11-13T06:50:26.919Z,6.60
2018-11-13T06:52:55.493Z,6.50
2018-11-13T06:55:28.989Z,6.50
2018-11-13T06:57:57.729Z,6.50
2018-11-13T07:00:26.264Z,6.50
2018-11-13T07:02:54.833Z,6.50
2018-11-13T07:05:23.373Z,6.50
2018-11-13T07:07:51.980Z,6.50
2018-11-13T07:10:23.999Z,6.50
2018-11-13T07:12:53.377Z,6.50
2018-11-13T07:15:23.045Z,6.50
2018-11-13T07:17:54.025Z,6.50
2018-11-13T07:20:23.694Z,6.50
2018-11-13T07:22:52.237Z,6.50
2018-11-13T07:25:21.228Z,6.50
2018-11-13T07:27:49.843Z,6.50
2018-11-13T07:30:19.737Z,6.40
2018-11-13T07:32:48.310Z,6.40
2018-11-13T07:35:18.029Z,6.40
2018-11-13T07:37:53.206Z,6.40
2018-11-13T07:40:22.118Z,6.40
2018-11-13T07:42:50.657Z,6.40
2018-11-13T07:45:19.550Z,6.40
2018-11-13T07:47:48.682Z,6.70
2018-11-13T07:50:17.573Z,6.80
2018-11-13T07:52:46.363Z,6.70
2018-11-13T07:55:16.040Z,6.60
2018-11-13T07:57:44.749Z,6.50
2018-11-13T08:00:16.446Z,6.50
2018-11-13T08:02:46.623Z,6.40
2018-11-13T08:05:15.207Z,6.40
2018-11-13T08:07:43.732Z,6.40
2018-11-13T08:10:13.226Z,6.40
2018-11-13T08:12:41.866Z,6.50
2018-11-13T08:15:12.630Z,6.50
2018-11-13T08:17:41.602Z,6.90
2018-11-13T08:20:11.974Z,7.30
2018-11-13T08:22:41.021Z,7.60
2018-11-13T08:25:10.583Z,7.60
2018-11-13T08:27:40.405Z,8.10
2018-11-13T08:30:10.954Z,8.40
2018-11-13T08:32:39.538Z,8.40
2018-11-13T08:35:08.675Z,8.40
2018-11-13T08:37:37.316Z,8.60
2018-11-13T08:40:08.323Z,8.70
2018-11-13T08:42:36.894Z,9.10
2018-11-13T08:45:06.592Z,8.90
2018-11-13T08:47:35.187Z,8.70
2018-11-13T08:50:03.855Z,8.90
2018-11-13T08:52:32.392Z,9.20
2018-11-13T08:55:00.986Z,9.60
2018-11-13T08:57:29.534Z,9.50
2018-11-13T08:59:58.138Z,9.90
2018-11-13T09:02:26.686Z,9.90
2018-11-13T09:04:55.297Z,10.00
2018-11-13T09:07:23.847Z,10.20
2018-11-13T09:09:52.407Z,10.30
2018-11-13T09:12:21.110Z,10.20
2018-11-13T09:14:49.588Z,10.60
2018-11-13T09:17:18.110Z,10.70
2018-11-13T09:19:46.731Z,10.70
2018-11-13T09:22:15.226Z,10.70
2018-11-13T09:24:43.817Z,10.80
2018-11-13T09:27:12.811Z,10.60
2018-11-13T09:29:41.378Z,11.20
2018-11-13T09:32:09.903Z,11.20
2018-11-13T09:34:38.451Z,11.10
2018-11-13T09:37:07.063Z,10.70
2018-11-13T09:39:35.565Z,10.70
2018-11-13T09:42:04.336Z,10.60
2018-11-13T09:44:33.637Z,10.00
2018-11-13T09:47:02.222Z,10.10
2018-11-13T09:49:30.746Z,10.10
2018-11-13T09:51:59.389Z,10.20
2018-11-13T09:54:28.020Z,10.00
2018-11-13T09:56:56.553Z,10.00
2018-11-13T09:59:25.075Z,9.70
2018-11-13T10:01:54.111Z,9.70
2018-11-13T10:04:22.610Z,9.70
2018-11-13T10:06:50.753Z,10.00
2018-11-13T10:09:19.659Z,10.10
2018-11-13T10:11:48.266Z,9.90
2018-11-13T10:14:16.798Z,10.10
2018-11-13T10:16:45.375Z,10.00
2018-11-13T10:19:13.958Z,10.00
2018-11-13T10:21:42.551Z,10.20
2018-11-13T10:24:11.174Z,10.10
2018-11-13T10:26:39.847Z,10.10
2018-11-13T10:29:09.285Z,10.10
2018-11-13T10:31:37.877Z,10.20
2018-11-13T10:34:07.062Z,10.40
2018-11-13T10:36:35.610Z,10.60
2018-11-13T10:39:05.635Z,10.60
2018-11-13T10:41:34.269Z,10.70
2018-11-13T10:44:02.762Z,11.20
2018-11-13T10:46:31.402Z,11.10
2018-11-13T10:48:59.982Z,11.00
2018-11-13T10:51:28.578Z,10.60
2018-11-13T10:53:57.139Z,10.20
2018-11-13T10:56:26.002Z,10.50
2018-11-13T10:58:54.521Z,10.70
2018-11-13T11:01:28.438Z,11.00
2018-11-13T11:04:07.189Z,10.70
2018-11-13T11:06:35.790Z,10.50
2018-11-13T11:09:06.680Z,10.60
2018-11-13T11:11:35.265Z,10.50
2018-11-13T11:14:04.268Z,10.10
2018-11-13T11:16:32.516Z,10.20
2018-11-13T11:19:01.364Z,10.20
2018-11-13T11:21:29.770Z,10.10
2018-11-13T11:23:58.414Z,10.20
2018-11-13T11:26:27.006Z,10.20
2018-11-13T11:28:55.558Z,10.20
2018-11-13T11:31:24.103Z,10.20
2018-11-13T11:33:52.676Z,10.20
2018-11-13T11:36:21.254Z,10.10
2018-11-13T11:38:50.192Z,10.10
2018-11-13T11:41:18.671Z,10.10
2018-11-13T11:43:47.215Z,9.90
2018-11-13T11:46:15.773Z,10.20
2018-11-13T11:48:44.334Z,10.20
2018-11-13T11:51:12.917Z,10.10
2018-11-13T11:53:41.589Z,10.20
2018-11-13T11:56:10.117Z,10.00
2018-11-13T11:58:38.665Z,9.90
2018-11-13T12:01:07.234Z,9.90
2018-11-13T12:03:36.250Z,10.00
2018-11-13T12:06:04.801Z,9.70
2018-11-13T12:08:33.354Z,9.80
2018-11-13T12:11:03.281Z,9.90
2018-11-13T12:13:31.849Z,10.00
2018-11-13T12:16:00.355Z,10.00
2018-11-13T12:18:28.916Z,10.20
2018-11-13T12:20:57.466Z,9.90
2018-11-13T12:23:26.075Z,10.00
2018-11-13T12:25:54.700Z,10.20
2018-11-13T12:28:23.177Z,10.10
2018-11-13T12:30:51.710Z,10.10
2018-11-13T12:33:20.249Z,10.10
2018-11-13T12:35:48.786Z,10.00
2018-11-13T12:38:17.335Z,9.80
2018-11-13T12:40:45.954Z,9.90
2018-11-13T12:43:14.545Z,9.90
2018-11-13T12:45:43.118Z,9.90
2018-11-13T12:48:11.666Z,9.80
2018-11-13T12:50:45.467Z,9.70
2018-11-13T12:53:14.062Z,9.80
2018-11-13T12:55:42.672Z,9.90
2018-11-13T12:58:11.256Z,9.90
2018-11-13T13:00:39.772Z,9.90
2018-11-13T13:03:08.313Z,10.00
2018-11-13T13:05:36.836Z,10.10
2018-11-13T13:08:05.900Z,10.20
2018-11-13T13:10:34.409Z,10.10
2018-11-13T13:13:02.996Z,10.00
2018-11-13T13:15:31.878Z,9.70
2018-11-13T13:18:00.891Z,9.90
2018-11-13T13:20:29.422Z,9.90
2018-11-13T13:22:58.481Z,9.90
2018-11-13T13:25:27.018Z,9.90
2018-11-13T13:27:55.539Z,10.00
2018-11-13T13:30:25.282Z,10.00
2018-11-13T13:32:53.883Z,10.00
2018-11-13T13:35:59.437Z,10.00
2018-11-13T13:38:28.119Z,9.90
2018-11-13T13:40:57.999Z,9.90
2018-11-13T13:43:27.415Z,9.70
2018-11-13T13:45:55.954Z,9.90
2018-11-13T13:48:24.906Z,9.90
2018-11-13T13:50:53.774Z,9.90
2018-11-13T13:53:22.957Z,9.90
2018-11-13T13:55:51.791Z,10.00
2018-11-13T13:58:21.267Z,9.90
2018-11-13T14:00:50.345Z,9.80
2018-11-13T14:03:18.862Z,10.00
2018-11-13T14:05:47.807Z,10.00
2018-11-13T14:08:17.130Z,9.90
2018-11-13T14:10:45.741Z,9.90
2018-11-13T14:13:14.818Z,9.90
2018-11-13T14:15:43.513Z,9.90
2018-11-13T14:18:12.310Z,9.80
2018-11-13T14:20:40.874Z,9.80
2018-11-13T14:23:09.519Z,9.80
2018-11-13T14:25:38.082Z,9.80
2018-11-13T14:28:06.668Z,9.80
2018-11-13T14:30:36.554Z,9.80
2018-11-13T14:33:07.172Z,9.80
2018-11-13T14:35:35.857Z,9.90
2018-11-13T14:38:04.449Z,9.70
2018-11-13T14:40:34.662Z,9.70
2018-11-13T14:43:03.549Z,9.80
2018-11-13T14:45:32.374Z,9.70
2018-11-13T14:48:01.240Z,9.80
2018-11-13T14:50:31.378Z,9.80
2018-11-13T14:53:00.181Z,9.70
2018-11-13T14:55:30.401Z,9.80
2018-11-13T14:57:59.865Z,9.80
2018-11-13T15:00:29.716Z,11.20
2018-11-13T15:02:58.910Z,12.20
2018-11-13T15:05:28.217Z,12.60
2018-11-13T15:07:58.338Z,12.90
2018-11-13T15:10:33.402Z,13.30
2018-11-13T15:13:02.128Z,13.30
2018-11-13T15:15:33.994Z,13.40
2018-11-13T15:18:05.173Z,13.50
2018-11-13T15:20:36.001Z,13.80
2018-11-13T15:23:06.691Z,13.80
2018-11-13T15:25:36.416Z,13.80
2018-11-13T15:28:05.647Z,13.70
2018-11-13T15:30:35.787Z,13.70
2018-11-13T15:33:08.921Z,13.50
2018-11-13T15:35:37.522Z,13.80
2018-11-13T15:38:07.258Z,13.70
2018-11-13T15:40:36.145Z,13.70
2018-11-13T15:43:05.002Z,13.80
2018-11-13T15:45:33.638Z,13.80
2018-11-13T15:48:03.312Z,13.60
2018-11-13T15:50:33.241Z,13.80
2018-11-13T15:53:02.385Z,13.70
2018-11-13T15:55:30.959Z,13.80
2018-11-13T15:57:59.993Z,13.80
2018-11-13T16:00:31.575Z,13.70
2018-11-13T16:03:01.764Z,13.60
2018-11-13T16:05:38.979Z,13.60
2018-11-13T16:08:08.484Z,13.60
2018-11-13T16:10:37.043Z,13.70
2018-11-13T16:13:06.030Z,13.60
2018-11-13T16:15:34.732Z,13.60
2018-11-13T16:18:04.774Z,13.70
2018-11-13T16:20:33.372Z,13.60
2018-11-13T16:23:01.929Z,13.70
2018-11-13T16:25:30.500Z,13.60
2018-11-13T16:27:59.041Z,13.60
2018-11-13T16:30:29.508Z,13.50
2018-11-13T16:32:57.893Z,13.60
2018-11-13T16:35:27.423Z,13.60
2018-11-13T16:37:57.177Z,13.50
2018-11-13T16:40:27.036Z,13.50
2018-11-13T16:42:55.574Z,13.40
2018-11-13T16:45:24.934Z,13.50
2018-11-13T16:47:54.088Z,13.40
2018-11-13T16:50:24.857Z,13.40
2018-11-13T16:52:53.427Z,13.50
2018-11-13T16:55:27.278Z,13.30
2018-11-13T16:57:56.557Z,13.40
2018-11-13T17:00:25.520Z,13.30
2018-11-13T17:02:54.041Z,13.30
2018-11-13T17:05:23.499Z,13.20
2018-11-13T17:07:51.959Z,13.10
2018-11-13T17:10:22.854Z,13.20
2018-11-13T17:12:51.841Z,13.20
2018-11-13T17:15:21.893Z,13.20
2018-11-13T17:20:14.889Z,13.20
2018-11-13T17:22:43.898Z,13.10
2018-11-13T17:25:14.046Z,13.10
2018-11-13T17:27:47.517Z,13.10
2018-11-13T17:30:22.971Z,13.10
2018-11-13T17:32:55.656Z,13.10
2018-11-13T17:35:25.891Z,13.00
2018-11-13T17:37:55.305Z,13.00
2018-11-13T17:40:25.817Z,13.00
2018-11-13T17:42:55.495Z,13.00
2018-11-13T17:45:27.600Z,13.00
2018-11-13T17:47:56.179Z,13.00
2018-11-13T17:50:27.228Z,12.90
2018-11-13T17:52:55.801Z,12.80
2018-11-13T17:55:24.600Z,12.80
2018-11-13T17:57:54.692Z,12.80
2018-11-13T18:00:29.083Z,12.80
2018-11-13T18:02:57.700Z,12.80
2018-11-13T18:05:27.175Z,12.80
2018-11-13T18:07:56.810Z,12.80
2018-11-13T18:10:26.036Z,12.80
2018-11-13T18:12:54.617Z,12.80
2018-11-13T18:15:24.438Z,12.70
2018-11-13T18:17:53.093Z,12.70
2018-11-13T18:20:25.909Z,12.60
2018-11-13T18:22:54.453Z,12.50
2018-11-13T18:25:23.047Z,12.50
2018-11-13T18:27:53.250Z,12.60
2018-11-13T18:30:24.025Z,12.60
2018-11-13T18:32:53.214Z,12.50
2018-11-13T18:35:23.241Z,12.40
2018-11-13T18:37:52.637Z,12.40
2018-11-13T18:40:22.041Z,12.40
2018-11-13T18:42:51.553Z,12.40
2018-11-13T18:45:23.966Z,12.30
2018-11-13T18:47:52.503Z,12.40
2018-11-13T18:50:24.612Z,12.30
2018-11-13T18:52:54.274Z,12.30
2018-11-13T18:55:22.927Z,12.30
2018-11-13T18:57:52.466Z,12.30
2018-11-13T19:00:22.513Z,12.30
2018-11-13T19:02:51.068Z,12.20
2018-11-13T19:05:20.075Z,12.10
2018-11-13T19:07:48.779Z,12.20
2018-11-13T19:10:25.750Z,12.10
2018-11-13T19:12:55.799Z,12.10
2018-11-13T19:15:24.715Z,12.10
2018-11-13T19:17:53.943Z,12.10
2018-11-13T19:20:23.810Z,12.00
2018-11-13T19:22:52.297Z,12.00
2018-11-13T19:25:24.520Z,11.90
2018-11-13T19:27:53.790Z,12.00
2018-11-13T19:30:22.802Z,12.00
2018-11-13T19:32:51.366Z,12.00
2018-11-13T19:35:20.535Z,11.90
2018-11-13T19:37:49.255Z,11.90
2018-11-13T19:40:20.359Z,11.80
2018-11-13T19:42:49.687Z,11.80
2018-11-13T19:45:18.672Z,11.80
2018-11-13T19:47:47.251Z,11.80
2018-11-13T19:50:17.538Z,11.70
2018-11-13T19:52:46.101Z,11.60
2018-11-13T19:55:15.800Z,11.50
2018-11-13T19:57:45.109Z,11.50
2018-11-13T20:00:18.358Z,11.60
2018-11-13T20:02:47.719Z,11.50
2018-11-13T20:05:16.310Z,11.50
2018-11-13T20:07:45.073Z,11.60
2018-11-13T20:10:22.032Z,11.50
2018-11-13T20:12:51.357Z,11.50
2018-11-13T20:15:20.645Z,11.40
2018-11-13T20:17:49.202Z,11.40
2018-11-13T20:20:21.001Z,11.20
2018-11-13T20:22:50.305Z,11.30
2018-11-13T20:25:20.433Z,11.30
2018-11-13T20:27:49.003Z,11.30
2018-11-13T20:30:27.961Z,11.30
2018-11-13T20:32:56.530Z,11.20
2018-11-13T20:35:25.756Z,11.10
2018-11-13T20:37:55.016Z,11.10
2018-11-13T20:40:26.977Z,11.10
2018-11-13T20:42:56.923Z,11.00
2018-11-13T20:45:25.476Z,11.00
2018-11-13T20:47:54.195Z,11.00
2018-11-13T20:50:24.219Z,11.00
2018-11-13T20:52:52.827Z,11.00
2018-11-13T20:55:21.511Z,10.90
2018-11-13T20:57:50.102Z,10.90
2018-11-13T21:00:22.085Z,10.80
2018-11-13T21:02:50.915Z,10.80
2018-11-13T21:05:19.687Z,10.80
2018-11-13T21:07:48.316Z,10.80
2018-11-13T21:10:20.719Z,10.80
2018-11-13T21:12:50.168Z,10.70
2018-11-13T21:15:19.854Z,10.70
2018-11-13T21:17:48.560Z,10.70
2018-11-13T21:20:18.342Z,10.70
2018-11-13T21:22:47.054Z,10.70
2018-11-13T21:25:19.180Z,10.70
2018-11-13T21:27:47.563Z,10.60
2018-11-13T21:30:18.945Z,10.50
2018-11-13T21:32:48.276Z,10.50
2018-11-13T21:35:17.109Z,10.50
2018-11-13T21:37:47.065Z,10.50
2018-11-13T21:40:17.668Z,10.50
2018-11-13T21:42:47.010Z,10.40
2018-11-13T21:45:16.216Z,10.40
2018-11-13T21:47:44.978Z,10.30
2018-11-13T21:50:15.360Z,10.30
2018-11-13T21:52:45.295Z,10.30
2018-11-13T21:55:15.648Z,10.20
2018-11-13T21:57:44.470Z,10.20
2018-11-13T22:00:26.045Z,10.20
2018-11-13T22:02:58.423Z,10.20
2018-11-13T22:05:28.083Z,10.10
2018-11-13T22:07:56.710Z,10.10
2018-11-13T22:10:25.232Z,10.10
2018-11-13T22:12:54.138Z,10.10
2018-11-13T22:15:23.664Z,10.00
2018-11-13T22:17:52.326Z,10.00
2018-11-13T22:20:21.665Z,9.90
2018-11-13T22:22:51.690Z,9.90
2018-11-13T22:25:21.959Z,9.80
2018-11-13T22:27:51.703Z,9.90
2018-11-13T22:30:21.715Z,9.90
2018-11-13T22:32:50.508Z,9.80
2018-11-13T22:35:20.844Z,9.80
2018-11-13T22:37:49.528Z,9.80
2018-11-13T22:40:19.410Z,9.70
2018-11-13T22:42:48.426Z,9.70
2018-11-13T22:45:18.658Z,9.70
2018-11-13T22:47:47.228Z,9.70
2018-11-13T22:50:19.817Z,9.70
2018-11-13T22:52:48.713Z,9.70
2018-11-13T22:55:17.688Z,9.60
2018-11-13T22:57:47.222Z,9.60
2018-11-13T23:00:18.632Z,9.60
2018-11-13T23:02:48.887Z,9.60
2018-11-13T23:05:17.437Z,9.50
2018-11-13T23:07:45.981Z,9.60
2018-11-13T23:10:15.337Z,9.50
2018-11-13T23:12:44.455Z,9.40
2018-11-13T23:15:16.675Z,9.40
2018-11-13T23:17:45.510Z,9.30
2018-11-13T23:20:15.806Z,9.30
2018-11-13T23:22:44.357Z,9.30
2018-11-13T23:25:15.027Z,9.30
2018-11-13T23:27:44.594Z,9.30
2018-11-13T23:30:16.376Z,9.20
2018-11-13T23:32:45.305Z,9.10
2018-11-13T23:35:14.508Z,9.10
2018-11-13T23:37:44.319Z,9.20
2018-11-13T23:40:14.442Z,9.20
2018-11-13T23:42:43.326Z,9.10
2018-11-13T23:45:12.924Z,9.10
2018-11-13T23:47:41.931Z,9.00
2018-11-13T23:50:11.550Z,9.00
2018-11-13T23:52:40.447Z,9.00
2018-11-13T23:55:10.850Z,9.00
2018-11-13T23:57:39.953Z,8.90
